Kezdőlap
METAR-TAF:

METAR-TAF

Repülőterek :

Lusakai nemzetközi repülőtér

Lusaka, Zambia

földrajzi szélesség: 15-19-51S, földrajzi hosszúság: 028-27-09E, magasság: 1152 m

Jelenlegi meteorológiai megfigyelések

A jelentés 1 órával és 28 perccel ezelõtt készült, 10:00 UTC
Északkeleti szél 8 kt
Hőmérséklet 32°C
Páratartalom 21%
Légköri nyomás 1020 hPa
Látótávolság 10 km, vagy több
Szórványos felhőzet 3800 lábon

METAR: FLKK 161000Z 05008KT 9999 SCT038 32/07 Q1020

Idő: 13:28 (11:28 UTC)


TAF: hiányzik

Meteorológiai megfigyelések és előrejelzések több, mint 4000 repülőtéren (METAR és TAF jelentéseket).

A térképen piros és sárga pontok jelzik az elérhető meteorológiai állomásokat.

Mozgassa az egeret a pont fölött, hogy megjelenjen az állomás neve.

Azután kattintson az időjárási megfigyelések és előrejelzések megtekintéséhez.

A térkép megváltoztatása: kattintson a fekete keresztel jelölt zöld gombra ráközelítéshez, a vonallal jelölt zöld gombra távolításhoz, vagy a zöld nyilakra a szomszédos térképek eléréséhez.


METAR-TAF: